createdAt,value
2019-02-15T00:02:50.111Z,5.10
2019-02-15T00:05:56.957Z,5.10
2019-02-15T00:09:04.775Z,5.20
2019-02-15T00:12:13.337Z,5.10
2019-02-15T00:15:20.167Z,5.10
2019-02-15T00:18:44.856Z,5.10
2019-02-15T00:21:53.456Z,5.20
2019-02-15T00:25:00.441Z,5.10
2019-02-15T00:28:07.121Z,5.10
2019-02-15T00:31:17.189Z,5.20
2019-02-15T00:34:24.033Z,5.10
2019-02-15T00:37:30.993Z,5.10
2019-02-15T00:40:37.757Z,5.10
2019-02-15T00:43:44.755Z,5.10
2019-02-15T00:47:10.359Z,5.10
2019-02-15T00:50:35.259Z,5.00
2019-02-15T00:53:47.930Z,5.00
2019-02-15T00:57:08.778Z,5.00
2019-02-15T01:00:28.550Z,5.00
2019-02-15T01:03:54.235Z,5.00
2019-02-15T01:07:07.231Z,5.00
2019-02-15T01:10:41.903Z,5.00
2019-02-15T01:13:48.641Z,5.00
2019-02-15T01:16:55.390Z,5.00
2019-02-15T01:20:02.060Z,5.00
2019-02-15T01:23:08.826Z,4.90
2019-02-15T01:26:21.751Z,5.00
2019-02-15T01:29:45.531Z,4.90
2019-02-15T01:33:11.169Z,5.00
2019-02-15T01:36:35.671Z,4.90
2019-02-15T01:39:47.859Z,4.90
2019-02-15T01:43:03.375Z,5.00
2019-02-15T01:46:17.207Z,4.90
2019-02-15T01:49:23.939Z,4.90
2019-02-15T01:52:30.747Z,4.90
2019-02-15T01:55:37.479Z,4.90
2019-02-15T01:58:44.465Z,4.90
2019-02-15T02:01:51.259Z,4.90
2019-02-15T02:04:58.077Z,4.90
2019-02-15T02:08:06.475Z,4.90
2019-02-15T02:11:13.175Z,4.90
2019-02-15T02:14:19.965Z,4.90
2019-02-15T02:17:26.732Z,4.90
2019-02-15T02:20:35.027Z,4.80
2019-02-15T02:23:41.763Z,4.80
2019-02-15T02:26:48.594Z,4.90
2019-02-15T02:29:55.283Z,4.80
2019-02-15T02:33:02.091Z,4.80
2019-02-15T02:36:08.835Z,4.80
2019-02-15T02:39:15.769Z,4.80
2019-02-15T02:42:22.554Z,4.80
2019-02-15T02:45:29.280Z,4.80
2019-02-15T02:48:37.454Z,4.80
2019-02-15T02:51:45.229Z,4.80
2019-02-15T02:54:52.025Z,4.80
2019-02-15T02:57:58.823Z,4.80
2019-02-15T03:01:05.544Z,4.80
2019-02-15T03:04:12.588Z,4.80
2019-02-15T03:07:19.700Z,4.80
2019-02-15T03:10:28.352Z,4.80
2019-02-15T03:13:35.249Z,4.80
2019-02-15T03:16:43.106Z,4.80
2019-02-15T03:19:49.849Z,4.80
2019-02-15T03:22:56.631Z,4.80
2019-02-15T03:26:03.397Z,4.80
2019-02-15T03:29:10.089Z,4.80
2019-02-15T03:32:16.893Z,4.70
2019-02-15T03:35:23.633Z,4.70
2019-02-15T03:38:53.361Z,4.70
2019-02-15T03:42:00.055Z,4.70
2019-02-15T03:45:06.847Z,4.60
2019-02-15T03:48:13.546Z,4.60
2019-02-15T03:51:20.277Z,4.60
2019-02-15T03:54:26.979Z,4.60
2019-02-15T03:57:33.756Z,4.70
2019-02-15T04:00:40.512Z,4.70
2019-02-15T04:03:47.241Z,4.60
2019-02-15T04:06:54.018Z,4.60
2019-02-15T04:10:00.759Z,4.60
2019-02-15T04:13:07.525Z,4.60
2019-02-15T04:16:14.255Z,4.60
2019-02-15T04:19:20.991Z,4.60
2019-02-15T04:22:27.791Z,4.60
2019-02-15T04:25:34.847Z,4.60
2019-02-15T04:28:41.525Z,4.60
2019-02-15T04:31:48.318Z,4.60
2019-02-15T04:34:55.049Z,4.60
2019-02-15T04:38:02.755Z,4.60
2019-02-15T04:41:09.521Z,4.60
2019-02-15T04:44:16.266Z,4.60
2019-02-15T04:47:23.000Z,4.60
2019-02-15T04:50:29.743Z,4.60
2019-02-15T04:53:36.487Z,4.60
2019-02-15T04:56:43.226Z,4.50
2019-02-15T04:59:49.981Z,4.50
2019-02-15T05:02:56.709Z,4.50
2019-02-15T05:06:03.492Z,4.50
2019-02-15T05:09:10.194Z,4.60
2019-02-15T05:12:17.812Z,4.50
2019-02-15T05:15:24.544Z,4.50
2019-02-15T05:18:31.268Z,4.50
2019-02-15T05:21:38.009Z,4.50
2019-02-15T05:24:44.783Z,4.50
2019-02-15T05:27:51.505Z,4.50
2019-02-15T05:30:58.237Z,4.50
2019-02-15T05:34:05.000Z,4.50
2019-02-15T05:37:11.729Z,4.50
2019-02-15T05:40:18.450Z,4.50
2019-02-15T05:43:25.224Z,4.50
2019-02-15T05:46:32.041Z,4.60
2019-02-15T05:49:38.783Z,4.60
2019-02-15T05:52:45.601Z,4.60
2019-02-15T05:55:52.353Z,4.60
2019-02-15T05:59:00.687Z,4.60
2019-02-15T06:02:07.518Z,4.50
2019-02-15T06:05:14.283Z,4.60
2019-02-15T06:08:21.003Z,4.60
2019-02-15T06:11:27.750Z,4.60
2019-02-15T06:14:34.574Z,4.60
2019-02-15T06:17:41.321Z,4.60
2019-02-15T06:20:48.110Z,4.60
2019-02-15T06:23:54.843Z,4.60
2019-02-15T06:27:01.622Z,4.60
2019-02-15T06:30:08.986Z,4.60
2019-02-15T06:33:15.753Z,4.60
2019-02-15T06:36:22.923Z,4.60
2019-02-15T06:39:29.707Z,4.60
2019-02-15T06:42:36.441Z,4.60
2019-02-15T06:45:43.184Z,4.70
2019-02-15T06:48:49.939Z,4.70
2019-02-15T06:51:56.776Z,4.70
2019-02-15T06:55:03.525Z,4.70
2019-02-15T06:58:10.429Z,4.70
2019-02-15T07:01:36.195Z,4.70
2019-02-15T07:05:10.736Z,4.80
2019-02-15T07:08:17.561Z,4.80
2019-02-15T07:11:24.591Z,4.90
2019-02-15T07:14:31.339Z,4.90
2019-02-15T07:17:38.098Z,4.90
2019-02-15T07:20:44.899Z,5.00
2019-02-15T07:23:51.682Z,5.00
2019-02-15T07:26:58.409Z,5.00
2019-02-15T07:30:06.153Z,5.00
2019-02-15T07:33:12.851Z,5.10
2019-02-15T07:36:19.610Z,5.10
2019-02-15T07:39:26.415Z,5.10
2019-02-15T07:42:33.243Z,5.20
2019-02-15T07:45:43.048Z,5.30
2019-02-15T07:48:50.016Z,5.30
2019-02-15T07:51:56.781Z,5.30
2019-02-15T07:55:03.623Z,5.40
2019-02-15T07:58:10.382Z,5.50
2019-02-15T08:01:17.243Z,5.60
2019-02-15T08:04:25.032Z,5.70
2019-02-15T08:07:31.773Z,5.80
2019-02-15T08:10:39.546Z,5.90
2019-02-15T08:13:46.498Z,6.10
2019-02-15T08:16:53.287Z,6.20
2019-02-15T08:20:01.659Z,6.30
2019-02-15T08:23:09.471Z,6.30
2019-02-15T08:26:16.296Z,6.40
2019-02-15T08:29:23.001Z,6.70
2019-02-15T08:32:29.826Z,7.10
2019-02-15T08:35:36.635Z,7.30
2019-02-15T08:38:43.354Z,7.50
2019-02-15T08:42:01.253Z,8.00
2019-02-15T08:44:58.504Z,8.50
2019-02-15T08:48:05.312Z,8.90
2019-02-15T08:51:12.035Z,9.30
2019-02-15T08:54:18.904Z,9.80
2019-02-15T08:57:25.759Z,10.20
2019-02-15T09:00:32.608Z,10.50
2019-02-15T09:03:39.454Z,11.10
2019-02-15T09:06:46.309Z,11.80
2019-02-15T09:09:53.213Z,12.40
2019-02-15T09:13:00.046Z,12.80
2019-02-15T09:16:10.453Z,13.20
2019-02-15T09:19:15.366Z,13.50
2019-02-15T09:22:22.116Z,14.00
2019-02-15T09:25:28.901Z,14.30
2019-02-15T09:28:45.976Z,14.70
2019-02-15T09:31:52.832Z,14.40
2019-02-15T09:34:59.602Z,14.60
2019-02-15T09:38:06.463Z,13.70
2019-02-15T09:41:13.276Z,14.10
2019-02-15T09:44:20.033Z,14.00
2019-02-15T09:47:26.834Z,13.40
2019-02-15T09:50:34.008Z,12.80
2019-02-15T09:53:40.931Z,12.30
2019-02-15T09:56:47.754Z,11.60
2019-02-15T09:59:54.684Z,11.10
2019-02-15T10:03:02.350Z,10.80
2019-02-15T10:06:10.604Z,10.60
2019-02-15T10:09:17.446Z,10.90
2019-02-15T10:12:24.268Z,11.30
2019-02-15T10:15:31.042Z,11.20
2019-02-15T10:18:37.790Z,11.50
2019-02-15T10:21:44.627Z,11.90
2019-02-15T10:24:51.400Z,12.00
2019-02-15T10:27:58.232Z,12.30
2019-02-15T10:31:04.972Z,12.90
2019-02-15T10:34:11.736Z,13.80
2019-02-15T10:37:18.494Z,14.00
2019-02-15T10:40:25.272Z,14.10
2019-02-15T10:43:32.063Z,14.10
2019-02-15T10:46:39.858Z,13.80
2019-02-15T10:49:46.980Z,12.90
2019-02-15T10:52:53.799Z,12.40
2019-02-15T10:56:00.600Z,12.20
2019-02-15T10:59:07.396Z,12.90
2019-02-15T11:02:14.178Z,13.40
2019-02-15T11:05:21.203Z,13.90
2019-02-15T11:08:28.020Z,14.20
2019-02-15T11:11:34.882Z,14.90
2019-02-15T11:14:41.638Z,15.20
2019-02-15T11:17:48.562Z,15.10
2019-02-15T11:20:55.540Z,14.90
2019-02-15T11:24:02.296Z,14.70
2019-02-15T11:27:10.188Z,15.30
2019-02-15T11:30:17.032Z,15.50
2019-02-15T11:33:23.812Z,15.60
2019-02-15T11:36:30.532Z,15.30
2019-02-15T11:39:37.318Z,15.30
2019-02-15T11:42:44.130Z,15.10
2019-02-15T11:45:51.076Z,15.10
2019-02-15T11:48:57.924Z,15.00
2019-02-15T11:52:04.747Z,14.70
2019-02-15T11:55:11.513Z,14.80
2019-02-15T11:58:18.335Z,14.90
2019-02-15T12:01:25.094Z,15.10
2019-02-15T12:04:32.945Z,15.20
2019-02-15T12:07:39.662Z,14.90
2019-02-15T12:10:46.434Z,15.00
2019-02-15T12:13:54.938Z,14.80
2019-02-15T12:17:05.618Z,14.50
2019-02-15T12:20:10.628Z,14.90
2019-02-15T12:23:17.516Z,15.00
2019-02-15T12:26:24.314Z,14.70
2019-02-15T12:29:31.059Z,14.70
2019-02-15T12:32:37.819Z,14.60
2019-02-15T12:35:44.590Z,14.40
2019-02-15T12:38:51.368Z,14.50
2019-02-15T12:41:58.168Z,14.40
2019-02-15T12:45:05.480Z,14.10
2019-02-15T12:48:12.227Z,14.10
2019-02-15T12:51:19.116Z,14.10
2019-02-15T12:54:25.918Z,14.10
2019-02-15T12:57:32.920Z,13.70
2019-02-15T13:00:40.165Z,13.60
2019-02-15T13:03:47.000Z,13.30
2019-02-15T13:06:53.806Z,13.30
2019-02-15T13:10:00.632Z,13.10
2019-02-15T13:13:07.405Z,12.90
2019-02-15T13:16:14.360Z,12.80
2019-02-15T13:19:21.630Z,12.70
2019-02-15T13:22:28.373Z,12.70
2019-02-15T13:25:37.053Z,12.80
2019-02-15T13:28:43.499Z,12.80
2019-02-15T13:31:50.257Z,12.70
2019-02-15T13:34:57.043Z,12.50
2019-02-15T13:38:03.973Z,12.20
2019-02-15T13:41:11.958Z,12.00
2019-02-15T13:44:18.946Z,11.70
2019-02-15T13:47:34.313Z,11.50
2019-02-15T13:50:34.296Z,11.20
2019-02-15T13:53:41.096Z,11.10
2019-02-15T13:56:48.097Z,10.90
2019-02-15T13:59:54.835Z,10.70
2019-02-15T14:03:01.593Z,10.70
2019-02-15T14:06:08.423Z,10.60
2019-02-15T14:09:15.222Z,10.50
2019-02-15T14:12:21.904Z,10.50
2019-02-15T14:15:28.635Z,10.40
2019-02-15T14:18:36.326Z,10.30
2019-02-15T14:21:44.631Z,10.20
2019-02-15T14:24:51.571Z,10.10
2019-02-15T14:27:58.359Z,10.00
2019-02-15T14:31:05.271Z,9.90
2019-02-15T14:34:12.035Z,9.80
2019-02-15T14:37:18.894Z,9.80
2019-02-15T14:40:25.769Z,9.70
2019-02-15T14:43:32.541Z,9.60
2019-02-15T14:46:39.371Z,9.60
2019-02-15T14:49:46.195Z,9.50
2019-02-15T14:52:53.078Z,9.40
2019-02-15T14:55:59.949Z,9.30
2019-02-15T14:59:06.802Z,9.30
2019-02-15T15:02:13.676Z,9.20
2019-02-15T15:05:20.623Z,9.10
2019-02-15T15:08:27.460Z,9.10
2019-02-15T15:11:34.274Z,9.00
2019-02-15T15:14:41.183Z,8.90
2019-02-15T15:17:49.978Z,8.80
2019-02-15T15:20:56.658Z,8.70
2019-02-15T15:24:03.455Z,8.60
2019-02-15T15:27:10.237Z,8.50
2019-02-15T15:30:16.982Z,8.40
2019-02-15T15:33:23.780Z,8.40
2019-02-15T15:36:30.695Z,8.30
2019-02-15T15:39:37.579Z,8.20
2019-02-15T15:42:46.305Z,8.10
2019-02-15T15:45:53.068Z,8.00
2019-02-15T15:48:59.830Z,7.90
2019-02-15T15:52:06.663Z,7.80
2019-02-15T15:55:13.424Z,7.70
2019-02-15T15:58:21.896Z,7.60
2019-02-15T16:01:28.841Z,7.60
2019-02-15T16:04:35.773Z,7.50
2019-02-15T16:07:43.592Z,7.40
2019-02-15T16:10:51.726Z,7.30
2019-02-15T16:13:58.465Z,7.30
2019-02-15T16:17:05.259Z,7.20
2019-02-15T16:20:12.105Z,7.10
2019-02-15T16:23:18.945Z,7.00
2019-02-15T16:26:25.783Z,6.90
2019-02-15T16:29:32.767Z,6.90
2019-02-15T16:32:39.647Z,6.80
2019-02-15T16:35:46.529Z,6.70
2019-02-15T16:38:53.339Z,6.70
2019-02-15T16:42:00.145Z,6.60
2019-02-15T16:45:07.306Z,6.60
2019-02-15T16:48:14.127Z,6.50
2019-02-15T16:51:20.959Z,6.50
2019-02-15T16:54:27.922Z,6.50
2019-02-15T16:57:34.845Z,6.40
2019-02-15T17:00:41.641Z,6.40
2019-02-15T17:03:48.605Z,6.40
2019-02-15T17:06:55.389Z,6.40
2019-02-15T17:10:02.178Z,6.40
2019-02-15T17:13:10.207Z,6.40
2019-02-15T17:16:17.019Z,6.40
2019-02-15T17:19:23.808Z,6.30
2019-02-15T17:22:30.592Z,6.30
2019-02-15T17:25:37.467Z,6.30
2019-02-15T17:28:44.221Z,6.30
2019-02-15T17:31:51.061Z,6.30
2019-02-15T17:34:57.901Z,6.30
2019-02-15T17:38:04.711Z,6.30
2019-02-15T17:41:11.657Z,6.30
2019-02-15T17:44:18.529Z,6.40
2019-02-15T17:47:25.365Z,6.40
2019-02-15T17:50:33.903Z,6.30
2019-02-15T17:53:40.754Z,6.40
2019-02-15T17:56:47.645Z,6.40
2019-02-15T17:59:54.518Z,6.30
2019-02-15T18:03:01.291Z,6.30
2019-02-15T18:06:08.312Z,6.30
2019-02-15T18:09:15.377Z,6.30
2019-02-15T18:12:22.203Z,6.30
2019-02-15T18:15:28.984Z,6.30
2019-02-15T18:18:37.732Z,6.20
2019-02-15T18:21:44.601Z,6.20
2019-02-15T18:24:51.455Z,6.20
2019-02-15T18:27:58.297Z,6.20
2019-02-15T18:31:05.097Z,6.10
2019-02-15T18:34:11.944Z,6.10
2019-02-15T18:37:19.949Z,6.10
2019-02-15T18:40:26.711Z,6.10
2019-02-15T18:43:33.577Z,6.00
2019-02-15T18:46:40.341Z,5.90
2019-02-15T18:49:48.078Z,5.90
2019-02-15T18:52:55.000Z,5.90
2019-02-15T18:56:01.819Z,5.80
2019-02-15T18:59:08.734Z,5.80
2019-02-15T19:02:15.600Z,5.70
2019-02-15T19:05:22.487Z,5.70
2019-02-15T19:08:29.250Z,5.70
2019-02-15T19:11:36.091Z,5.70
2019-02-15T19:14:43.874Z,5.60
2019-02-15T19:17:50.755Z,5.60
2019-02-15T19:20:57.587Z,5.60
2019-02-15T19:24:04.429Z,5.50
2019-02-15T19:27:11.217Z,5.50
2019-02-15T19:30:20.268Z,5.40
2019-02-15T19:33:27.103Z,5.40
2019-02-15T19:36:33.939Z,5.30
2019-02-15T19:39:40.886Z,5.20
2019-02-15T19:42:49.209Z,5.20
2019-02-15T19:45:56.146Z,5.20
2019-02-15T19:49:02.970Z,5.20
2019-02-15T19:52:09.739Z,5.20
2019-02-15T19:55:17.581Z,5.10
2019-02-15T19:58:24.363Z,5.10
2019-02-15T20:01:31.221Z,5.10
2019-02-15T20:04:38.060Z,5.00
2019-02-15T20:07:44.765Z,5.00
2019-02-15T20:10:51.545Z,4.90
2019-02-15T20:13:59.961Z,4.90
2019-02-15T20:17:08.057Z,4.90
2019-02-15T20:20:14.915Z,4.80
2019-02-15T20:23:22.928Z,4.80
2019-02-15T20:26:30.777Z,4.80
2019-02-15T20:29:37.654Z,4.70
2019-02-15T20:32:44.523Z,4.70
2019-02-15T20:35:51.259Z,4.60
2019-02-15T20:38:58.081Z,4.60
2019-02-15T20:42:04.911Z,4.50
2019-02-15T20:45:14.419Z,4.50
2019-02-15T20:48:22.331Z,4.50
2019-02-15T20:51:29.247Z,4.50
2019-02-15T20:54:36.029Z,4.50
2019-02-15T20:57:42.811Z,4.40
2019-02-15T21:00:49.692Z,4.40
2019-02-15T21:03:56.464Z,4.40
2019-02-15T21:07:03.386Z,4.40
2019-02-15T21:10:10.911Z,4.30
2019-02-15T21:13:20.448Z,4.30
2019-02-15T21:16:26.299Z,4.30
2019-02-15T21:19:33.147Z,4.20
2019-02-15T21:22:39.983Z,4.20
2019-02-15T21:25:48.101Z,4.10
2019-02-15T21:28:55.097Z,4.10
2019-02-15T21:32:01.997Z,4.00
2019-02-15T21:35:08.779Z,4.00
2019-02-15T21:38:17.282Z,3.90
2019-02-15T21:41:24.513Z,3.90
2019-02-15T21:44:31.435Z,3.90
2019-02-15T21:47:38.363Z,3.90
2019-02-15T21:50:45.255Z,3.80
2019-02-15T21:53:52.159Z,3.80
2019-02-15T21:56:58.934Z,3.80
2019-02-15T22:00:07.455Z,3.70
2019-02-15T22:03:15.923Z,3.70
2019-02-15T22:06:22.682Z,3.70
2019-02-15T22:09:29.445Z,3.70
2019-02-15T22:12:36.233Z,3.60
2019-02-15T22:15:42.981Z,3.60
2019-02-15T22:18:49.891Z,3.60
2019-02-15T22:21:56.701Z,3.60
2019-02-15T22:25:03.456Z,3.50
2019-02-15T22:28:10.204Z,3.50
2019-02-15T22:31:17.182Z,3.50
2019-02-15T22:34:23.831Z,3.40
2019-02-15T22:37:30.593Z,3.40
2019-02-15T22:40:39.163Z,3.40
2019-02-15T22:43:46.588Z,3.30
2019-02-15T22:46:53.433Z,3.30
2019-02-15T22:50:01.111Z,3.20
2019-02-15T22:53:07.878Z,3.20
2019-02-15T22:56:14.665Z,3.20
2019-02-15T22:59:21.595Z,3.20
2019-02-15T23:02:28.351Z,3.20
2019-02-15T23:05:35.213Z,3.20
2019-02-15T23:08:42.020Z,3.20
2019-02-15T23:11:48.870Z,3.20
2019-02-15T23:14:55.704Z,3.20
2019-02-15T23:18:02.421Z,3.10
2019-02-15T23:21:09.196Z,3.10
2019-02-15T23:24:15.926Z,3.10
2019-02-15T23:27:22.764Z,3.10
2019-02-15T23:30:29.589Z,3.10
2019-02-15T23:33:36.393Z,3.10
2019-02-15T23:36:45.253Z,3.00
2019-02-15T23:39:52.286Z,3.00
2019-02-15T23:42:59.087Z,3.00
2019-02-15T23:46:05.870Z,3.00
2019-02-15T23:49:13.670Z,3.00
2019-02-15T23:52:20.490Z,3.00
2019-02-15T23:55:27.239Z,3.00
2019-02-15T23:58:35.800Z,3.00
